Time;durP1;ratioP1;P1;durP2;ratioP2;P2;SDS_P1;SDS_P2;PMS_P1;PMS_P2;Temp;Humidity;BMP_temperature;BMP_pressure;BME280_temperature;BME280_humidity;BME280_pressure;Samples;Min_cycle;Max_cycle;Signal;HPM_P1;HPM_P2
2021/09/24 00:00:29;;;;;;;33.20;29.63;;;15.50;99.90;;;;;;5058071;28;20545;-61
2021/09/24 00:03:00;;;;;;;32.13;28.67;;;15.50;99.90;;;;;;5049475;28;20467;-61
2021/09/24 00:05:30;;;;;;;31.60;28.40;;;15.60;99.90;;;;;;5039462;28;20467;-62
2021/09/24 00:07:57;;;;;;;29.90;26.80;;;15.50;99.90;;;;;;5037519;28;20449;-63
2021/09/24 00:10:24;;;;;;;30.17;26.83;;;15.50;99.90;;;;;;5049205;28;20463;-63
2021/09/24 00:12:51;;;;;;;25.93;23.33;;;15.50;99.90;;;;;;5056485;28;20466;-64
2021/09/24 00:15:19;;;;;;;27.17;24.43;;;15.50;99.90;;;;;;5051519;28;20466;-64
2021/09/24 00:17:46;;;;;;;30.80;27.50;;;15.40;99.90;;;;;;5049276;28;20788;-64
2021/09/24 00:20:17;;;;;;;28.30;25.53;;;15.40;99.90;;;;;;5039448;28;20517;-64
2021/09/24 00:22:44;;;;;;;26.83;24.00;;;15.50;99.90;;;;;;5054974;28;20494;-64
2021/09/24 00:25:12;;;;;;;29.20;26.23;;;15.50;99.90;;;;;;5057690;28;20466;-64
2021/09/24 00:27:39;;;;;;;26.63;23.80;;;15.40;99.90;;;;;;5057488;28;20519;-64
2021/09/24 00:30:08;;;;;;;28.70;25.63;;;15.40;99.90;;;;;;5057228;28;20466;-64
2021/09/24 00:32:35;;;;;;;26.77;24.07;;;15.50;99.90;;;;;;5057431;28;20497;-64
2021/09/24 00:35:02;;;;;;;31.70;28.20;;;15.50;99.90;;;;;;5057865;28;20462;-64
2021/09/24 00:37:31;;;;;;;35.57;28.70;;;15.50;99.90;;;;;;5057301;28;20512;-64
2021/09/24 00:39:58;;;;;;;30.87;27.50;;;15.40;99.90;;;;;;5057120;28;20490;-64
2021/09/24 00:42:28;;;;;;;32.33;28.43;;;15.50;99.90;;;;;;5057480;28;20755;-64
2021/09/24 00:44:55;;;;;;;33.70;26.50;;;15.50;99.90;;;;;;5057510;28;20931;-64
2021/09/24 00:47:22;;;;;;;39.03;29.60;;;15.50;99.90;;;;;;5057566;28;20499;-64
2021/09/24 00:49:51;;;;;;;33.03;29.57;;;15.50;99.90;;;;;;5057209;28;20755;-63
2021/09/24 00:52:21;;;;;;;32.10;28.17;;;15.40;99.90;;;;;;5057187;28;20547;-63
2021/09/24 00:54:53;;;;;;;36.20;30.03;;;15.40;99.90;;;;;;5057601;28;20494;-63
2021/09/24 00:57:21;;;;;;;33.43;29.93;;;15.40;99.90;;;;;;5056633;28;20500;-63
2021/09/24 00:59:49;;;;;;;33.07;29.10;;;15.40;99.90;;;;;;5056977;28;20750;-63
2021/09/24 01:02:17;;;;;;;33.73;28.70;;;15.30;99.90;;;;;;5057027;28;20533;-63
2021/09/24 01:04:44;;;;;;;32.30;28.30;;;15.40;99.90;;;;;;5057375;28;20466;-63
2021/09/24 01:07:13;;;;;;;30.30;27.10;;;15.30;99.90;;;;;;5057540;28;20476;-63
2021/09/24 01:09:41;;;;;;;32.57;28.00;;;15.30;99.90;;;;;;5053721;28;20513;-63
2021/09/24 01:12:10;;;;;;;31.87;27.40;;;15.30;99.90;;;;;;5055242;28;20779;-63
2021/09/24 01:14:37;;;;;;;31.37;28.10;;;15.20;99.90;;;;;;5056884;28;20516;-62
2021/09/24 01:17:05;;;;;;;31.80;27.30;;;15.20;99.90;;;;;;5057213;28;20489;-62
2021/09/24 01:19:34;;;;;;;32.50;29.00;;;15.30;99.90;;;;;;5057115;28;20465;-62
2021/09/24 01:22:04;;;;;;;35.83;26.87;;;15.30;99.90;;;;;;5056828;28;20904;-62
2021/09/24 01:24:30;;;;;;;29.77;26.57;;;15.30;99.90;;;;;;5056953;28;20506;-62
2021/09/24 01:26:59;;;;;;;30.50;27.30;;;15.30;99.90;;;;;;5056992;28;20978;-62
2021/09/24 01:29:28;;;;;;;30.77;25.83;;;15.30;99.90;;;;;;5057017;28;20520;-62
2021/09/24 01:31:55;;;;;;;30.17;25.10;;;15.30;99.90;;;;;;5056382;28;20506;-62
2021/09/24 01:34:22;;;;;;;27.23;24.47;;;15.20;99.90;;;;;;5056678;28;20470;-62
2021/09/24 01:36:50;;;;;;;28.90;24.60;;;15.20;99.90;;;;;;5057342;28;20458;-62
2021/09/24 01:39:19;;;;;;;26.50;23.80;;;15.20;99.90;;;;;;5057261;28;20496;-62
2021/09/24 01:41:48;;;;;;;26.93;23.70;;;15.30;99.90;;;;;;5056352;28;20519;-62
2021/09/24 01:44:16;;;;;;;27.97;24.63;;;15.20;99.90;;;;;;5056879;28;20885;-62
2021/09/24 01:46:45;;;;;;;27.40;24.50;;;15.30;99.90;;;;;;5056767;28;20572;-62
2021/09/24 01:49:12;;;;;;;28.13;25.23;;;15.20;99.90;;;;;;5057024;28;20525;-62
2021/09/24 01:51:42;;;;;;;29.00;24.80;;;15.30;99.90;;;;;;5056533;28;20617;-62
2021/09/24 01:54:09;;;;;;;29.13;25.57;;;15.20;99.90;;;;;;5056644;28;20963;-62
2021/09/24 01:56:37;;;;;;;30.23;26.93;;;15.20;99.90;;;;;;5056815;28;20466;-62
2021/09/24 01:59:05;;;;;;;26.87;24.00;;;15.20;99.90;;;;;;5056753;28;20462;-62
2021/09/24 02:01:32;;;;;;;30.67;26.37;;;15.20;99.90;;;;;;5056350;28;20773;-62
2021/09/24 02:03:59;;;;;;;31.23;27.67;;;15.20;99.90;;;;;;5056462;28;20462;-62
2021/09/24 02:06:26;;;;;;;29.97;26.77;;;15.20;99.90;;;;;;5056924;28;20470;-62
2021/09/24 02:08:54;;;;;;;38.53;30.17;;;15.20;99.90;;;;;;5056496;28;20433;-62
2021/09/24 02:11:21;;;;;;;39.90;35.77;;;15.20;99.90;;;;;;5056194;28;20788;-62
2021/09/24 02:13:49;;;;;;;40.80;35.20;;;15.20;99.90;;;;;;5056623;28;20437;-62
2021/09/24 02:16:16;;;;;;;40.43;36.07;;;15.10;99.90;;;;;;5056450;28;20520;-62
2021/09/24 02:18:43;;;;;;;45.27;38.73;;;15.20;99.90;;;;;;5056420;28;20466;-62
2021/09/24 02:21:10;;;;;;;49.90;40.70;;;15.20;99.90;;;;;;5056654;28;20958;-62
2021/09/24 02:23:38;;;;;;;46.43;40.13;;;15.20;99.90;;;;;;5055932;28;20501;-62
2021/09/24 02:26:06;;;;;;;47.73;42.20;;;15.20;99.90;;;;;;5055990;28;20466;-62
2021/09/24 02:28:33;;;;;;;47.17;42.07;;;15.20;99.90;;;;;;5055983;28;20498;-62
2021/09/24 02:31:08;;;;;;;45.43;40.03;;;15.30;99.90;;;;;;5056069;28;20489;-62
2021/09/24 02:33:36;;;;;;;44.60;39.83;;;15.30;99.90;;;;;;5060084;28;20792;-62
2021/09/24 02:36:04;;;;;;;46.70;41.70;;;15.20;99.90;;;;;;5060261;28;20760;-62
2021/09/24 02:38:32;;;;;;;45.57;40.30;;;15.20;99.90;;;;;;5059846;28;20519;-62
2021/09/24 02:40:59;;;;;;;52.43;41.13;;;15.30;99.90;;;;;;5060009;28;20458;-62
2021/09/24 02:43:26;;;;;;;45.80;40.70;;;15.30;99.90;;;;;;5060297;28;20504;-62
2021/09/24 02:45:53;;;;;;;45.13;39.27;;;15.30;99.90;;;;;;5059545;28;20955;-62
2021/09/24 02:48:21;;;;;;;52.87;42.50;;;15.30;99.90;;;;;;5059587;28;20466;-62
2021/09/24 02:50:48;;;;;;;46.47;41.47;;;15.40;99.90;;;;;;5059881;28;20909;-62
2021/09/24 02:53:15;;;;;;;47.27;41.87;;;15.30;99.90;;;;;;5059544;28;20493;-62
2021/09/24 02:55:42;;;;;;;48.90;42.90;;;15.30;99.90;;;;;;5059458;28;20461;-62
2021/09/24 02:58:09;;;;;;;53.10;43.43;;;15.30;99.90;;;;;;5059197;28;20466;-62
2021/09/24 03:00:37;;;;;;;54.43;44.73;;;15.30;99.90;;;;;;5059633;28;20565;-62
2021/09/24 03:03:04;;;;;;;52.40;43.77;;;15.30;99.90;;;;;;5059045;28;20462;-62
2021/09/24 03:05:33;;;;;;;48.90;43.57;;;15.20;99.90;;;;;;5059500;28;20773;-62
2021/09/24 03:08:00;;;;;;;57.17;44.40;;;15.30;99.90;;;;;;5059607;28;20469;-62
2021/09/24 03:10:36;;;;;;;54.77;43.77;;;15.30;99.90;;;;;;5049719;28;20462;-62
2021/09/24 03:13:03;;;;;;;56.80;44.87;;;15.20;99.90;;;;;;5039537;28;20495;-62
2021/09/24 03:15:30;;;;;;;56.03;43.80;;;15.30;99.90;;;;;;5039467;28;20490;-62
2021/09/24 03:17:57;;;;;;;51.20;42.80;;;15.30;99.90;;;;;;5039322;28;20463;-62
2021/09/24 03:20:24;;;;;;;48.50;39.90;;;15.20;99.90;;;;;;5039218;28;20520;-62
2021/09/24 03:22:53;;;;;;;51.37;41.87;;;15.20;99.90;;;;;;5039088;28;20503;-62
2021/09/24 03:25:20;;;;;;;50.90;43.47;;;15.30;99.90;;;;;;5039226;28;20489;-62
2021/09/24 03:27:47;;;;;;;49.63;42.27;;;15.30;99.90;;;;;;5038844;28;20811;-62
2021/09/24 03:30:18;;;;;;;48.03;39.20;;;15.30;99.90;;;;;;5038717;28;20517;-62
2021/09/24 03:32:45;;;;;;;54.60;41.27;;;15.30;99.90;;;;;;5039360;28;20494;-62
2021/09/24 03:35:14;;;;;;;58.37;40.30;;;15.30;99.90;;;;;;5044617;28;20842;-62
2021/09/24 03:37:41;;;;;;;56.10;39.00;;;15.30;99.90;;;;;;5058067;28;20898;-62
2021/09/24 03:40:11;;;;;;;44.70;37.03;;;15.30;99.90;;;;;;5038814;28;20491;-62
2021/09/24 03:42:38;;;;;;;52.13;37.47;;;15.30;99.90;;;;;;5038262;28;20486;-62
2021/09/24 03:45:08;;;;;;;50.53;37.10;;;15.30;99.90;;;;;;5046538;28;20466;-62
2021/09/24 03:47:35;;;;;;;48.13;36.10;;;15.40;99.90;;;;;;5053495;28;20520;-62
2021/09/24 03:50:03;;;;;;;44.83;35.63;;;15.30;99.90;;;;;;5044775;28;20475;-62
2021/09/24 03:52:30;;;;;;;51.57;35.97;;;15.30;99.90;;;;;;5037652;28;20960;-62
2021/09/24 03:54:57;;;;;;;45.37;36.77;;;15.30;99.90;;;;;;5038504;28;20625;-62
2021/09/24 03:57:25;;;;;;;46.40;37.67;;;15.30;99.90;;;;;;5040354;28;20502;-62
2021/09/24 03:59:52;;;;;;;49.30;38.63;;;15.30;99.90;;;;;;5045513;28;20506;-62
2021/09/24 04:02:22;;;;;;;49.13;39.53;;;15.40;99.90;;;;;;5042574;28;20464;-62
2021/09/24 04:04:49;;;;;;;48.77;38.70;;;15.30;99.90;;;;;;5038497;28;20462;-62
2021/09/24 04:07:18;;;;;;;53.97;40.23;;;15.30;99.90;;;;;;5044322;28;20473;-62
2021/09/24 04:09:45;;;;;;;58.53;41.87;;;15.20;99.90;;;;;;5041866;28;20474;-61
2021/09/24 04:12:12;;;;;;;54.63;42.23;;;15.30;99.90;;;;;;5058024;28;20486;-61
2021/09/24 04:14:40;;;;;;;60.10;40.97;;;15.30;99.90;;;;;;5058263;28;20472;-61
2021/09/24 04:17:07;;;;;;;50.73;40.37;;;15.30;99.90;;;;;;5058308;28;20524;-61
2021/09/24 04:19:34;;;;;;;51.20;38.73;;;15.30;99.90;;;;;;5057816;28;20908;-61
2021/09/24 04:22:01;;;;;;;60.87;41.50;;;15.30;99.90;;;;;;5057886;28;20512;-61
2021/09/24 04:24:31;;;;;;;54.60;40.93;;;15.20;99.90;;;;;;5057891;28;20818;-61
2021/09/24 04:26:58;;;;;;;58.13;42.07;;;15.20;99.90;;;;;;5058046;28;20520;-61
2021/09/24 04:29:28;;;;;;;56.73;41.73;;;15.30;99.90;;;;;;5058129;28;20492;-61
2021/09/24 04:31:56;;;;;;;53.50;40.70;;;15.30;99.90;;;;;;5057270;28;20491;-61
2021/09/24 04:34:23;;;;;;;55.03;42.83;;;15.30;99.90;;;;;;5053150;28;20440;-61
2021/09/24 04:36:53;;;;;;;66.07;42.53;;;15.30;99.90;;;;;;5038225;28;20508;-61
2021/09/24 04:39:20;;;;;;;57.70;44.20;;;15.30;99.90;;;;;;5049184;28;20466;-61
2021/09/24 04:41:47;;;;;;;71.57;43.60;;;15.40;99.90;;;;;;5048242;28;20889;-61
2021/09/24 04:44:14;;;;;;;62.77;41.80;;;15.30;99.90;;;;;;5038278;28;20490;-61
2021/09/24 04:46:41;;;;;;;62.00;43.07;;;15.30;99.90;;;;;;5037567;28;20576;-61
2021/09/24 04:49:09;;;;;;;70.33;47.67;;;15.30;99.90;;;;;;5050509;28;20864;-61
2021/09/24 04:51:36;;;;;;;67.20;45.70;;;15.30;99.90;;;;;;5043441;28;20533;-61
2021/09/24 04:54:03;;;;;;;67.30;46.40;;;15.30;99.90;;;;;;5050667;28;20948;-61
2021/09/24 04:56:30;;;;;;;63.27;45.17;;;15.20;99.90;;;;;;5056865;28;20499;-61
2021/09/24 04:58:57;;;;;;;68.07;45.37;;;15.20;99.90;;;;;;5055750;28;20489;-61
2021/09/24 05:01:24;;;;;;;69.13;46.10;;;15.20;99.90;;;;;;5037462;28;20904;-61
2021/09/24 05:03:51;;;;;;;73.00;46.07;;;15.20;99.90;;;;;;5041930;28;20773;-61
2021/09/24 05:06:19;;;;;;;70.30;45.50;;;15.30;99.90;;;;;;5052371;28;20471;-61
2021/09/24 05:08:46;;;;;;;72.03;46.87;;;15.30;99.90;;;;;;5057190;28;20768;-62
2021/09/24 05:11:13;;;;;;;75.00;47.50;;;15.30;99.90;;;;;;5040956;28;20505;-62
2021/09/24 05:13:40;;;;;;;76.07;47.70;;;15.30;99.90;;;;;;5036937;28;20527;-61
2021/09/24 05:16:07;;;;;;;79.97;46.23;;;15.20;99.90;;;;;;5036813;28;20926;-61
2021/09/24 05:18:34;;;;;;;71.13;45.97;;;15.20;99.90;;;;;;5036863;28;20498;-61
2021/09/24 05:21:02;;;;;;;74.50;47.63;;;15.20;99.90;;;;;;5037223;28;20906;-61
2021/09/24 05:23:30;;;;;;;73.90;46.67;;;15.20;99.90;;;;;;5037107;28;20459;-61
2021/09/24 05:25:57;;;;;;;75.23;46.50;;;15.10;99.90;;;;;;5036917;28;20471;-61
2021/09/24 05:28:24;;;;;;;74.77;46.40;;;15.10;99.90;;;;;;5036759;28;20510;-61
2021/09/24 05:30:51;;;;;;;67.43;44.07;;;15.10;99.90;;;;;;5037130;28;20487;-62
2021/09/24 05:33:18;;;;;;;67.67;45.10;;;15.20;99.90;;;;;;5036919;28;20531;-62
2021/09/24 05:35:45;;;;;;;76.57;46.67;;;15.20;99.90;;;;;;5036632;28;20512;-62
2021/09/24 05:38:12;;;;;;;63.77;44.93;;;15.20;99.90;;;;;;5036906;28;20491;-62
2021/09/24 05:40:44;;;;;;;75.17;46.10;;;15.30;99.90;;;;;;5036800;28;20517;-61
2021/09/24 05:43:10;;;;;;;62.83;42.17;;;15.20;99.90;;;;;;5036932;28;20966;-61
2021/09/24 05:45:37;;;;;;;65.17;42.97;;;15.20;99.90;;;;;;5049434;28;20462;-61
2021/09/24 05:48:06;;;;;;;71.60;45.13;;;15.30;99.90;;;;;;5056538;28;20506;-62
2021/09/24 05:50:34;;;;;;;71.70;46.77;;;15.30;99.90;;;;;;5056980;28;20502;-61
2021/09/24 05:53:02;;;;;;;68.70;45.00;;;15.30;99.90;;;;;;5056728;28;20875;-61
2021/09/24 05:55:30;;;;;;;71.50;45.67;;;15.30;99.90;;;;;;5057055;28;20508;-61
2021/09/24 05:57:58;;;;;;;67.70;45.63;;;15.30;99.90;;;;;;5056947;28;20901;-61
2021/09/24 06:00:25;;;;;;;62.50;43.50;;;15.20;99.90;;;;;;5056604;28;20970;-61
2021/09/24 06:02:53;;;;;;;65.27;44.63;;;15.30;99.90;;;;;;5056637;28;20452;-61
2021/09/24 06:05:20;;;;;;;64.70;43.87;;;15.30;99.90;;;;;;5054887;28;20498;-61
2021/09/24 06:07:47;;;;;;;65.00;45.20;;;15.20;99.90;;;;;;5058123;28;20473;-61
2021/09/24 06:10:16;;;;;;;75.67;49.60;;;15.30;99.90;;;;;;5053212;28;20783;-61
2021/09/24 06:12:45;;;;;;;81.70;51.17;;;15.30;99.90;;;;;;5045948;28;20495;-61
2021/09/24 06:15:15;;;;;;;84.50;51.43;;;15.30;99.90;;;;;;5045274;28;20462;-61
2021/09/24 06:17:42;;;;;;;87.73;51.87;;;15.30;99.90;;;;;;5050106;28;20549;-61
2021/09/24 06:20:10;;;;;;;83.50;51.90;;;15.20;99.90;;;;;;5049885;28;20470;-61
2021/09/24 06:22:37;;;;;;;87.17;54.10;;;15.10;99.90;;;;;;5050254;28;20483;-61
2021/09/24 06:25:13;;;;;;;82.13;50.03;;;15.20;99.90;;;;;;5068524;28;20907;-61
2021/09/24 06:27:41;;;;;;;89.83;49.03;;;15.10;99.90;;;;;;5075272;28;20916;-61
2021/09/24 06:30:12;;;;;;;77.23;50.50;;;15.10;99.90;;;;;;5052483;28;20567;-61
2021/09/24 06:32:41;;;;;;;84.77;50.03;;;15.00;99.90;;;;;;5050105;28;20577;-61
2021/09/24 06:35:09;;;;;;;76.67;49.40;;;15.00;99.90;;;;;;5055482;28;20535;-61
2021/09/24 06:37:36;;;;;;;83.67;52.53;;;15.00;99.90;;;;;;5059973;28;20462;-61
2021/09/24 06:40:05;;;;;;;82.33;47.90;;;15.00;99.90;;;;;;5059804;28;20920;-61
2021/09/24 06:42:32;;;;;;;80.47;49.70;;;15.00;99.90;;;;;;5060068;28;20472;-61
2021/09/24 06:45:01;;;;;;;83.77;46.87;;;15.00;99.90;;;;;;5059433;28;20465;-61
2021/09/24 06:47:29;;;;;;;74.67;46.93;;;15.00;99.90;;;;;;5059242;28;20509;-61
2021/09/24 06:50:05;;;;;;;73.37;47.07;;;15.00;99.90;;;;;;5057045;28;20990;-61
2021/09/24 06:52:33;;;;;;;74.87;46.97;;;15.00;99.90;;;;;;5059583;28;20528;-61
2021/09/24 06:55:00;;;;;;;66.73;43.27;;;15.00;99.90;;;;;;5059725;28;20931;-61
2021/09/24 06:57:27;;;;;;;73.00;46.77;;;15.00;99.90;;;;;;5060008;28;20440;-61
2021/09/24 06:59:58;;;;;;;79.60;46.33;;;15.00;99.90;;;;;;5059401;28;20502;-61
2021/09/24 07:02:31;;;;;;;70.90;44.90;;;15.00;99.90;;;;;;5058782;28;20470;-61
2021/09/24 07:04:57;;;;;;;64.03;46.17;;;15.00;99.90;;;;;;5057866;28;20462;-61
2021/09/24 07:07:26;;;;;;;59.27;42.43;;;15.00;99.90;;;;;;5058737;28;20789;-61
2021/09/24 07:09:56;;;;;;;60.20;42.97;;;15.10;99.90;;;;;;5058344;28;20509;-62
2021/09/24 07:12:23;;;;;;;57.27;41.20;;;15.00;99.90;;;;;;5059128;28;20462;-61
2021/09/24 07:14:50;;;;;;;54.00;40.40;;;14.90;99.90;;;;;;5059111;28;20547;-61
2021/09/24 07:17:20;;;;;;;52.00;38.43;;;15.00;99.90;;;;;;5059294;28;20909;-61
2021/09/24 07:19:47;;;;;;;51.30;40.10;;;15.00;99.90;;;;;;5058656;28;20519;-61
2021/09/24 07:22:15;;;;;;;54.47;41.57;;;15.00;99.90;;;;;;5059273;28;20463;-61
2021/09/24 07:24:44;;;;;;;58.57;38.90;;;15.10;99.90;;;;;;5057987;28;20459;-61
2021/09/24 07:27:13;;;;;;;47.23;37.27;;;15.10;99.90;;;;;;5056599;28;20524;-61
2021/09/24 07:29:40;;;;;;;45.07;38.10;;;15.00;99.90;;;;;;5045557;28;20469;-61
2021/09/24 07:32:10;;;;;;;47.00;36.60;;;15.10;99.90;;;;;;5047656;28;20526;-61
2021/09/24 07:34:39;;;;;;;43.90;35.63;;;15.10;99.90;;;;;;5038116;28;20557;-61
2021/09/24 07:37:05;;;;;;;47.57;38.10;;;15.20;99.90;;;;;;5038839;28;20537;-61
2021/09/24 07:39:32;;;;;;;49.50;38.40;;;15.20;99.90;;;;;;5048893;28;20516;-61
2021/09/24 07:42:07;;;;;;;49.53;37.83;;;15.30;99.90;;;;;;5043742;28;20490;-61
2021/09/24 07:44:37;;;;;;;48.80;38.90;;;15.30;99.90;;;;;;5044742;28;20516;-61
2021/09/24 07:47:05;;;;;;;50.07;41.37;;;15.40;99.90;;;;;;5040585;28;20521;-60
2021/09/24 07:49:32;;;;;;;50.87;41.47;;;15.40;99.90;;;;;;5054936;28;20483;-61
2021/09/24 07:51:58;;;;;;;47.33;37.83;;;15.40;99.90;;;;;;5078234;28;20462;-60
2021/09/24 07:54:26;;;;;;;53.27;41.53;;;15.40;99.90;;;;;;5071956;28;20848;-60
2021/09/24 07:56:56;;;;;;;55.13;42.97;;;15.30;99.90;;;;;;5052006;28;20466;-60
2021/09/24 07:59:27;;;;;;;49.73;40.83;;;15.30;99.90;;;;;;5053085;28;20501;-60
2021/09/24 08:01:56;;;;;;;51.43;39.40;;;15.20;99.90;;;;;;5058326;28;20517;-60
2021/09/24 08:04:23;;;;;;;50.70;39.47;;;15.20;99.90;;;;;;5053024;28;20455;-60
2021/09/24 08:06:50;;;;;;;47.47;39.60;;;15.20;99.90;;;;;;5039353;28;20470;-60
2021/09/24 08:09:17;;;;;;;51.60;41.47;;;15.30;99.90;;;;;;5049411;28;22249;-60
2021/09/24 08:11:45;;;;;;;43.40;38.40;;;15.40;99.90;;;;;;5044666;28;20471;-60
2021/09/24 08:14:12;;;;;;;46.13;37.57;;;15.50;99.90;;;;;;5037382;28;20596;-60
2021/09/24 08:16:40;;;;;;;40.10;33.87;;;15.50;99.90;;;;;;5046502;28;20479;-60
2021/09/24 08:19:07;;;;;;;38.60;32.10;;;15.50;99.90;;;;;;5037486;28;20471;-60
2021/09/24 08:21:34;;;;;;;42.37;35.53;;;15.50;99.90;;;;;;5037784;28;20507;-60
2021/09/24 08:24:03;;;;;;;37.83;32.07;;;15.60;99.90;;;;;;5036814;28;20510;-60
2021/09/24 08:26:31;;;;;;;37.97;29.73;;;15.60;99.90;;;;;;5035617;28;20957;-60
2021/09/24 08:28:58;;;;;;;39.93;32.43;;;15.60;99.90;;;;;;5050992;28;20510;-59
2021/09/24 08:31:25;;;;;;;36.30;31.60;;;15.60;99.90;;;;;;5042986;28;20522;-59
2021/09/24 08:33:57;;;;;;;40.50;33.10;;;15.50;99.90;;;;;;5048638;28;20538;-59
2021/09/24 08:36:27;;;;;;;42.37;32.93;;;15.50;99.90;;;;;;5044926;28;20808;-59
2021/09/24 08:38:54;;;;;;;38.87;32.50;;;15.50;99.90;;;;;;5046244;28;20870;-59
2021/09/24 08:41:27;;;;;;;41.13;35.27;;;15.50;99.90;;;;;;5045860;28;20475;-59
2021/09/24 08:43:58;;;;;;;40.33;31.73;;;15.50;99.90;;;;;;5046571;28;20462;-59
2021/09/24 08:46:25;;;;;;;41.30;34.53;;;15.60;99.90;;;;;;5055287;28;20474;-59
2021/09/24 08:49:07;;;;;;;44.70;36.43;;;15.60;99.90;;;;;;5046602;28;20462;-59
2021/09/24 08:51:35;;;;;;;43.23;35.43;;;15.70;99.90;;;;;;5052288;28;20527;-59
2021/09/24 08:54:03;;;;;;;43.10;34.80;;;15.80;99.90;;;;;;5055338;28;20835;-61
2021/09/24 08:56:30;;;;;;;41.40;34.40;;;15.80;99.90;;;;;;5045660;28;20517;-59
2021/09/24 08:58:58;;;;;;;64.80;37.37;;;15.70;99.90;;;;;;5054136;28;20540;-59
2021/09/24 09:01:27;;;;;;;43.90;34.97;;;15.70;99.90;;;;;;5055967;28;20543;-58
2021/09/24 09:03:55;;;;;;;47.80;37.10;;;15.60;99.90;;;;;;5052360;28;20757;-59
2021/09/24 09:06:28;;;;;;;47.67;35.60;;;15.70;99.90;;;;;;5056870;28;20519;-58
2021/09/24 09:09:05;;;;;;;52.30;39.63;;;15.70;99.90;;;;;;5057254;28;20515;-58
2021/09/24 09:11:35;;;;;;;49.33;39.10;;;15.80;99.90;;;;;;5054512;28;20553;-58
2021/09/24 09:14:06;;;;;;;49.47;39.87;;;15.70;99.90;;;;;;5041342;28;20561;-57
2021/09/24 09:16:35;;;;;;;50.97;39.47;;;15.70;99.90;;;;;;5053744;28;20797;-57
2021/09/24 09:19:07;;;;;;;46.60;36.80;;;15.80;99.90;;;;;;5057165;28;20905;-58
2021/09/24 09:21:40;;;;;;;44.20;38.77;;;15.80;99.90;;;;;;5045706;28;20494;-58
2021/09/24 09:24:16;;;;;;;44.80;36.77;;;15.90;99.90;;;;;;5038016;28;20463;-58
2021/09/24 09:26:46;;;;;;;44.33;35.57;;;16.00;99.90;;;;;;5037284;28;20469;-58
2021/09/24 09:29:14;;;;;;;37.63;33.03;;;16.20;99.90;;;;;;5037164;28;20561;-58
2021/09/24 09:31:41;;;;;;;40.57;35.27;;;16.30;99.90;;;;;;5042372;28;20509;-56
2021/09/24 09:34:09;;;;;;;37.93;33.83;;;16.30;99.90;;;;;;5051726;28;20486;-58
2021/09/24 09:36:40;;;;;;;40.30;35.70;;;16.20;99.90;;;;;;5037127;28;20894;-56
2021/09/24 09:39:11;;;;;;;36.77;32.80;;;16.20;99.90;;;;;;5040308;28;20463;-58
2021/09/24 09:41:47;;;;;;;37.53;31.57;;;16.20;99.90;;;;;;5045032;28;20468;-57
2021/09/24 09:44:25;;;;;;;37.20;32.17;;;16.40;99.90;;;;;;5057429;28;20446;-56
2021/09/24 09:46:52;;;;;;;36.60;32.10;;;16.50;99.90;;;;;;5040092;28;20495;-56
2021/09/24 09:49:21;;;;;;;34.03;30.00;;;16.50;99.90;;;;;;5039822;28;20441;-58
2021/09/24 09:51:49;;;;;;;32.57;29.10;;;16.40;99.90;;;;;;5046472;28;20556;-57
2021/09/24 09:54:28;;;;;;;35.27;29.77;;;16.60;99.90;;;;;;5039392;28;20771;-56
2021/09/24 09:57:11;;;;;;;32.27;28.73;;;16.70;99.90;;;;;;5039120;28;20549;-57
2021/09/24 09:59:38;;;;;;;29.67;26.63;;;16.80;99.90;;;;;;5039194;28;20462;-56
2021/09/24 10:02:13;;;;;;;33.37;29.90;;;17.00;99.90;;;;;;5039710;28;20442;-55
2021/09/24 10:04:50;;;;;;;32.57;29.30;;;16.90;99.90;;;;;;5040310;28;20881;-54
2021/09/24 10:07:20;;;;;;;33.90;28.50;;;17.00;99.90;;;;;;5053316;28;20465;-56
2021/09/24 10:09:48;;;;;;;30.20;27.10;;;17.50;99.90;;;;;;5055387;28;20513;-57
2021/09/24 10:12:20;;;;;;;27.53;24.70;;;17.70;99.90;;;;;;5039327;28;20478;-55
2021/09/24 10:14:51;;;;;;;27.87;25.27;;;18.10;99.90;;;;;;5040062;28;20575;-57
2021/09/24 10:17:22;;;;;;;24.97;22.57;;;18.50;99.90;;;;;;5040381;28;20512;-56
2021/09/24 10:19:50;;;;;;;28.40;25.57;;;18.70;28.30;;;;;;5039650;28;20593;-56
2021/09/24 10:22:18;;;;;;;26.10;23.60;;;19.00;1.00;;;;;;5039940;28;20506;-55
2021/09/24 10:24:45;;;;;;;25.07;22.40;;;19.20;1.00;;;;;;5059647;28;20450;-54
2021/09/24 10:27:17;;;;;;;23.47;21.20;;;19.40;1.00;;;;;;5060000;28;20897;-53
2021/09/24 10:29:47;;;;;;;21.20;19.20;;;19.60;1.00;;;;;;5060064;28;20539;-56
2021/09/24 10:32:16;;;;;;;18.90;17.00;;;19.60;1.00;;;;;;5059410;28;20521;-53
2021/09/24 10:34:59;;;;;;;18.77;16.93;;;19.20;1.00;;;;;;5060005;28;20824;-54
2021/09/24 10:37:32;;;;;;;22.17;19.53;;;19.10;1.00;;;;;;5058828;28;20474;-54
2021/09/24 10:40:03;;;;;;;19.33;17.27;;;19.00;1.00;;;;;;5059405;28;20531;-55
2021/09/24 10:42:51;;;;;;;20.10;18.30;;;19.10;1.00;;;;;;5060115;28;20437;-57
2021/09/24 10:45:34;;;;;;;16.80;15.30;;;19.20;1.00;;;;;;5060451;28;20881;-57
2021/09/24 10:48:16;;;;;;;16.77;15.17;;;19.40;1.00;;;;;;5056712;28;20473;-53
2021/09/24 10:51:05;;;;;;;17.40;15.70;;;19.30;1.00;;;;;;5059027;28;20539;-51
2021/09/24 10:53:46;;;;;;;17.17;15.17;;;19.60;1.00;;;;;;5057307;28;20478;-51
2021/09/24 10:56:34;;;;;;;16.53;14.93;;;19.80;1.00;;;;;;5042326;28;20484;-57
2021/09/24 10:59:29;;;;;;;17.10;15.40;;;19.70;1.00;;;;;;5052095;28;20465;-55
2021/09/24 11:01:59;;;;;;;17.07;15.13;;;19.60;1.00;;;;;;5057628;28;20546;-57
2021/09/24 11:04:42;;;;;;;16.30;14.80;;;19.50;1.00;;;;;;5056555;28;20983;-56
2021/09/24 11:07:10;;;;;;;16.13;14.37;;;19.60;1.00;;;;;;5053915;28;20798;-55
2021/09/24 11:09:53;;;;;;;15.13;13.80;;;19.60;1.00;;;;;;5054907;28;20467;-54
2021/09/24 11:12:20;;;;;;;18.53;14.43;;;19.60;1.00;;;;;;5053759;28;20556;-56
2021/09/24 11:14:47;;;;;;;17.97;14.87;;;19.50;1.00;;;;;;5058983;28;20975;-55
2021/09/24 11:17:41;;;;;;;16.27;14.67;;;19.60;1.00;;;;;;5053289;28;20478;-55
2021/09/24 11:20:32;;;;;;;17.73;16.03;;;19.60;1.00;;;;;;5057763;28;20529;-55
2021/09/24 11:22:59;;;;;;;16.43;14.93;;;19.50;1.00;;;;;;5056164;28;20504;-53
2021/09/24 11:25:29;;;;;;;15.27;13.87;;;19.70;1.00;;;;;;5057387;28;20467;-56
2021/09/24 11:28:00;;;;;;;14.20;12.83;;;19.60;1.00;;;;;;5040645;28;20898;-54
2021/09/24 11:30:31;;;;;;;12.97;11.67;;;19.40;1.00;;;;;;5071492;28;20457;-53
2021/09/24 11:33:00;;;;;;;13.90;12.23;;;19.50;1.00;;;;;;5078828;28;20524;-54
2021/09/24 11:35:44;;;;;;;15.27;12.47;;;19.60;1.00;;;;;;5064754;28;20573;-53
2021/09/24 11:38:19;;;;;;;14.43;13.00;;;19.50;1.00;;;;;;5058744;28;20466;-56
2021/09/24 11:40:53;;;;;;;13.00;11.80;;;19.30;1.00;;;;;;5058347;28;20475;-57
2021/09/24 11:43:28;;;;;;;14.30;12.97;;;19.20;1.00;;;;;;5058131;28;20454;-57
2021/09/24 11:46:03;;;;;;;14.23;12.53;;;19.00;1.00;;;;;;5056626;28;20462;-55
2021/09/24 11:48:32;;;;;;;16.40;13.27;;;18.80;1.00;;;;;;5058119;28;20505;-58
2021/09/24 11:51:17;;;;;;;15.07;13.43;;;18.80;1.00;;;;;;5057665;28;20951;-57
2021/09/24 11:53:50;;;;;;;14.97;12.97;;;18.70;1.00;;;;;;5057655;28;20466;-53
2021/09/24 11:56:33;;;;;;;15.17;11.47;;;18.80;1.00;;;;;;5057986;28;20540;-57
2021/09/24 11:59:03;;;;;;;15.07;11.47;;;18.90;1.00;;;;;;5047870;28;20533;-53
2021/09/24 12:01:30;;;;;;;14.23;12.63;;;19.00;1.00;;;;;;5037500;28;20467;-56
2021/09/24 12:03:58;;;;;;;13.27;11.47;;;19.10;1.00;;;;;;5037315;28;20498;-56
2021/09/24 12:06:32;;;;;;;13.23;11.70;;;19.10;1.00;;;;;;5037235;28;20459;-57
2021/09/24 12:09:09;;;;;;;14.63;11.17;;;19.10;1.00;;;;;;5046969;28;20559;-55
2021/09/24 12:11:46;;;;;;;13.73;11.73;;;19.20;1.00;;;;;;5057430;28;20893;-55
2021/09/24 12:14:14;;;;;;;12.67;9.60;;;19.40;1.00;;;;;;5057847;28;20512;-51
2021/09/24 12:16:49;;;;;;;11.43;10.33;;;19.70;1.00;;;;;;5056437;28;20454;-56
2021/09/24 12:19:20;;;;;;;13.17;11.00;;;19.70;1.00;;;;;;5057296;28;20885;-55
2021/09/24 12:21:50;;;;;;;13.37;10.70;;;19.80;1.00;;;;;;5057487;28;20546;-54
2021/09/24 12:24:22;;;;;;;16.23;12.10;;;19.60;1.00;;;;;;5056820;28;20458;-52
2021/09/24 12:26:52;;;;;;;12.10;10.27;;;19.40;1.00;;;;;;5057610;28;20500;-57
2021/09/24 12:29:26;;;;;;;13.70;11.67;;;19.30;1.00;;;;;;5058021;28;20458;-56
2021/09/24 12:31:54;;;;;;;13.77;10.60;;;19.30;1.00;;;;;;5054895;28;20528;-56
2021/09/24 12:34:24;;;;;;;11.10;10.00;;;19.20;1.00;;;;;;5054810;28;20804;-57
2021/09/24 12:36:57;;;;;;;14.17;11.23;;;19.00;1.00;;;;;;5055890;28;20812;-57
2021/09/24 12:39:28;;;;;;;14.07;12.50;;;19.00;1.00;;;;;;5054541;28;20454;-52